createdAt,value
2019-02-23T00:01:16.792Z,103596.26
2019-02-23T00:04:42.402Z,103595.80
2019-02-23T00:08:08.118Z,103597.18
2019-02-23T00:11:33.794Z,103596.53
2019-02-23T00:14:59.479Z,103586.05
2019-02-23T00:18:25.164Z,103589.75
2019-02-23T00:21:50.764Z,103585.61
2019-02-23T00:25:16.411Z,103594.73
2019-02-23T00:28:42.053Z,103586.69
2019-02-23T00:32:07.676Z,103592.34
2019-02-23T00:35:33.753Z,103598.03
2019-02-23T00:38:59.340Z,103601.58
2019-02-23T00:42:25.287Z,103596.44
2019-02-23T00:45:50.890Z,103599.58
2019-02-23T00:49:17.147Z,103597.95
2019-02-23T00:52:42.841Z,103598.75
2019-02-23T00:56:08.493Z,103597.92
2019-02-23T00:59:34.112Z,103596.09
2019-02-23T01:02:59.706Z,103590.50
2019-02-23T01:06:25.365Z,103593.14
2019-02-23T01:09:51.319Z,103591.30
2019-02-23T01:13:17.169Z,103585.98
2019-02-23T01:16:43.100Z,103595.00
2019-02-23T01:20:11.039Z,103594.02
2019-02-23T01:23:36.685Z,103594.19
2019-02-23T01:27:02.299Z,103594.94
2019-02-23T01:30:27.930Z,103598.28
2019-02-23T01:33:53.549Z,103591.17
2019-02-23T01:37:19.206Z,103590.77
2019-02-23T01:40:44.831Z,103594.38
2019-02-23T01:44:10.451Z,103591.20
2019-02-23T01:47:36.043Z,103597.59
2019-02-23T01:51:01.644Z,103590.97
2019-02-23T01:54:27.249Z,103592.03
2019-02-23T01:57:52.901Z,103579.69
2019-02-23T02:01:18.492Z,103579.55
2019-02-23T02:04:44.150Z,103583.48
2019-02-23T02:08:09.783Z,103582.09
2019-02-23T02:11:35.520Z,103580.05
2019-02-23T02:15:01.221Z,103581.05
2019-02-23T02:18:27.044Z,103568.64
2019-02-23T02:21:52.720Z,103574.06
2019-02-23T02:25:18.716Z,103573.19
2019-02-23T02:28:44.383Z,103572.31
2019-02-23T02:32:10.025Z,103571.34
2019-02-23T02:35:35.661Z,103573.92
2019-02-23T02:39:01.281Z,103571.67
2019-02-23T02:42:26.915Z,103561.93
2019-02-23T02:45:52.605Z,103567.28
2019-02-23T02:49:18.278Z,103559.23
2019-02-23T02:52:43.946Z,103564.17
2019-02-23T02:56:09.632Z,103560.30
2019-02-23T02:59:35.267Z,103567.12
2019-02-23T03:03:00.896Z,103568.23
2019-02-23T03:06:26.927Z,103570.92
2019-02-23T03:09:52.595Z,103568.22
2019-02-23T03:13:18.189Z,103561.88
2019-02-23T03:16:44.127Z,103560.19
2019-02-23T03:20:10.554Z,103565.17
2019-02-23T03:23:36.514Z,103553.50
2019-02-23T03:27:02.129Z,103555.85
2019-02-23T03:30:27.805Z,103550.12
2019-02-23T03:33:53.411Z,103563.11
2019-02-23T03:37:19.018Z,103559.61
2019-02-23T03:40:44.658Z,103561.44
2019-02-23T03:44:10.257Z,103561.41
2019-02-23T03:47:35.889Z,103552.09
2019-02-23T03:51:01.476Z,103559.30
2019-02-23T03:54:27.103Z,103562.63
2019-02-23T03:57:52.730Z,103562.53
2019-02-23T04:01:18.381Z,103563.78
2019-02-23T04:04:44.057Z,103554.18
2019-02-23T04:08:09.811Z,103557.63
2019-02-23T04:11:35.454Z,103568.41
2019-02-23T04:15:01.689Z,103571.14
2019-02-23T04:18:27.280Z,103572.81
2019-02-23T04:21:52.934Z,103571.00
2019-02-23T04:25:18.661Z,103577.83
2019-02-23T04:28:44.293Z,103580.08
2019-02-23T04:32:09.940Z,103576.45
2019-02-23T04:35:35.900Z,103587.26
2019-02-23T04:39:02.215Z,103587.54
2019-02-23T04:42:27.873Z,103588.55
2019-02-23T04:45:53.483Z,103590.70
2019-02-23T04:49:19.161Z,103598.09
2019-02-23T04:52:44.842Z,103598.53
2019-02-23T04:56:10.453Z,103596.80
2019-02-23T04:59:36.027Z,103598.61
2019-02-23T05:03:01.672Z,103595.80
2019-02-23T05:06:27.297Z,103596.39
2019-02-23T05:09:52.898Z,103608.61
2019-02-23T05:13:18.595Z,103603.17
2019-02-23T05:16:44.218Z,103605.59
2019-02-23T05:20:10.474Z,103610.95
2019-02-23T05:23:36.077Z,103613.20
2019-02-23T05:27:01.740Z,103614.14
2019-02-23T05:30:31.560Z,103617.69
2019-02-23T05:33:54.730Z,103616.14
2019-02-23T05:37:20.347Z,103615.19
2019-02-23T05:40:46.052Z,103621.91
2019-02-23T05:44:11.700Z,103617.94
2019-02-23T05:47:37.372Z,103620.39
2019-02-23T05:51:03.041Z,103621.52
2019-02-23T05:54:28.798Z,103631.38
2019-02-23T05:57:54.438Z,103637.71
2019-02-23T06:01:20.126Z,103640.42
2019-02-23T06:04:48.130Z,103641.30
2019-02-23T06:08:13.784Z,103648.88
2019-02-23T06:11:39.342Z,103646.70
2019-02-23T06:15:05.249Z,103644.55
2019-02-23T06:18:31.117Z,103651.61
2019-02-23T06:21:56.869Z,103660.93
2019-02-23T06:25:22.934Z,103659.23
2019-02-23T06:28:48.532Z,103657.05
2019-02-23T06:32:14.228Z,103657.94
2019-02-23T06:35:39.818Z,103652.14
2019-02-23T06:39:06.444Z,103662.92
2019-02-23T06:42:32.115Z,103660.27
2019-02-23T06:45:57.825Z,103664.28
2019-02-23T06:49:23.477Z,103668.83
2019-02-23T06:52:49.163Z,103663.41
2019-02-23T06:56:15.397Z,103671.44
2019-02-23T06:59:41.165Z,103664.75
2019-02-23T07:03:07.260Z,103669.67
2019-02-23T07:06:34.018Z,103674.11
2019-02-23T07:09:59.716Z,103676.30
2019-02-23T07:13:25.367Z,103679.45
2019-02-23T07:16:51.257Z,103665.62
2019-02-23T07:20:43.728Z,103670.95
2019-02-23T07:24:02.200Z,103674.02
2019-02-23T07:27:27.842Z,103677.14
2019-02-23T07:30:53.579Z,103665.56
2019-02-23T07:34:28.015Z,103669.53
2019-02-23T07:37:53.602Z,103670.04
2019-02-23T07:41:19.400Z,103666.90
2019-02-23T07:44:45.430Z,103680.77
2019-02-23T07:48:12.452Z,103675.75
2019-02-23T07:51:38.169Z,103666.28
2019-02-23T07:55:03.686Z,103662.32
2019-02-23T07:58:29.647Z,103656.49
2019-02-23T08:01:55.286Z,103660.08
2019-02-23T08:05:20.938Z,103662.27
2019-02-23T08:08:46.675Z,103661.82
2019-02-23T08:12:13.570Z,103659.43
2019-02-23T08:15:39.555Z,103657.66
2019-02-23T08:19:05.174Z,103663.80
2019-02-23T08:22:37.427Z,103656.59
2019-02-23T08:25:58.225Z,103659.30
2019-02-23T08:29:23.859Z,103659.77
2019-02-23T08:32:49.510Z,103665.59
2019-02-23T08:36:15.331Z,103664.94
2019-02-23T08:39:40.962Z,103668.86
2019-02-23T08:43:06.663Z,103669.34
2019-02-23T08:46:32.622Z,103670.34
2019-02-23T08:49:58.338Z,103660.76
2019-02-23T08:53:24.740Z,103669.59
2019-02-23T08:56:50.397Z,103670.77
2019-02-23T09:00:17.355Z,103668.78
2019-02-23T09:03:43.129Z,103678.84
2019-02-23T09:07:08.881Z,103677.09
2019-02-23T09:10:34.558Z,103673.61
2019-02-23T09:14:00.154Z,103665.13
2019-02-23T09:17:25.856Z,103669.02
2019-02-23T09:20:51.983Z,103657.90
2019-02-23T09:24:17.933Z,103657.92
2019-02-23T09:27:44.455Z,103662.41
2019-02-23T09:31:10.144Z,103666.20
2019-02-23T09:34:35.843Z,103654.53
2019-02-23T09:38:03.265Z,103668.73
2019-02-23T09:41:28.865Z,103669.09
2019-02-23T09:44:54.607Z,103681.04
2019-02-23T09:48:20.264Z,103680.55
2019-02-23T09:51:45.998Z,103681.37
2019-02-23T09:55:11.833Z,103684.50
2019-02-23T09:58:37.445Z,103674.37
2019-02-23T10:02:03.166Z,103658.96
2019-02-23T10:05:29.080Z,103648.38
2019-02-23T10:08:54.818Z,103645.88
2019-02-23T10:12:20.557Z,103649.11
2019-02-23T10:15:46.637Z,103639.42
2019-02-23T10:19:12.551Z,103629.47
2019-02-23T10:22:39.652Z,103629.95
2019-02-23T10:26:06.010Z,103627.22
2019-02-23T10:29:31.937Z,103629.20
2019-02-23T10:32:57.745Z,103631.59
2019-02-23T10:36:23.429Z,103628.00
2019-02-23T10:39:49.020Z,103633.39
2019-02-23T10:43:14.993Z,103627.21
2019-02-23T10:46:39.957Z,103627.23
2019-02-23T10:50:06.449Z,103626.03
2019-02-23T10:53:33.066Z,103631.13
2019-02-23T10:56:59.384Z,103625.39
2019-02-23T11:00:25.825Z,103617.14
2019-02-23T11:03:51.444Z,103610.70
2019-02-23T11:07:17.374Z,103607.11
2019-02-23T11:10:43.331Z,103599.70
2019-02-23T11:14:09.034Z,103592.22
2019-02-23T11:17:35.205Z,103589.84
2019-02-23T11:21:00.946Z,103589.54
2019-02-23T11:24:26.602Z,103582.13
2019-02-23T11:31:19.147Z,103569.74
2019-02-23T11:34:44.860Z,103556.72
2019-02-23T11:38:10.508Z,103561.50
2019-02-23T11:41:36.122Z,103555.70
2019-02-23T11:45:01.766Z,103551.66
2019-02-23T11:48:27.464Z,103550.62
2019-02-23T11:51:53.159Z,103547.73
2019-02-23T11:55:19.695Z,103538.86
2019-02-23T11:58:45.622Z,103538.27
2019-02-23T12:02:11.245Z,103533.91
2019-02-23T12:05:36.906Z,103530.53
2019-02-23T12:09:02.814Z,103533.23
2019-02-23T12:12:28.383Z,103535.17
2019-02-23T12:15:54.046Z,103532.55
2019-02-23T12:19:19.709Z,103533.05
2019-02-23T12:22:45.386Z,103535.03
2019-02-23T12:26:11.094Z,103527.14
2019-02-23T12:29:36.735Z,103532.29
2019-02-23T12:33:02.537Z,103533.98
2019-02-23T12:36:28.446Z,103528.67
2019-02-23T12:39:54.103Z,103526.39
2019-02-23T12:43:19.755Z,103526.91
2019-02-23T12:46:45.692Z,103521.92
2019-02-23T12:50:11.450Z,103513.96
2019-02-23T12:53:37.143Z,103500.72
2019-02-23T12:57:02.749Z,103504.91
2019-02-23T13:00:28.783Z,103500.45
2019-02-23T13:03:54.448Z,103493.67
2019-02-23T13:07:20.089Z,103484.37
2019-02-23T13:10:46.274Z,103485.19
2019-02-23T13:15:02.803Z,103481.00
2019-02-23T13:19:30.789Z,103486.39
2019-02-23T13:23:47.667Z,103479.34
2019-02-23T13:28:02.523Z,103478.38
2019-02-23T13:32:43.776Z,103476.44
2019-02-23T13:37:45.827Z,103471.77
2019-02-23T13:42:01.014Z,103480.03
2019-02-23T13:46:08.357Z,103470.22
2019-02-23T13:50:43.254Z,103466.05
2019-02-23T13:55:13.842Z,103462.95
2019-02-23T13:59:18.809Z,103462.21
2019-02-23T14:03:27.531Z,103455.42
2019-02-23T14:07:33.710Z,103449.53
2019-02-23T14:12:11.974Z,103454.59
2019-02-23T14:16:29.672Z,103448.51
2019-02-23T14:20:26.553Z,103449.69
2019-02-23T14:24:52.592Z,103448.72
2019-02-23T14:29:34.573Z,103444.45
2019-02-23T14:33:57.581Z,103435.64
2019-02-23T14:38:20.123Z,103439.86
2019-02-23T14:42:18.919Z,103438.50
2019-02-23T14:46:54.554Z,103438.48
2019-02-23T14:50:59.451Z,103442.39
2019-02-23T14:55:04.347Z,103444.83
2019-02-23T14:59:24.472Z,103440.33
2019-02-23T15:04:00.466Z,103434.84
2019-02-23T15:08:14.498Z,103425.83
2019-02-23T15:16:17.496Z,103424.13
2019-02-23T15:20:16.630Z,103418.18
2019-02-23T15:24:36.239Z,103414.17
2019-02-23T15:28:47.911Z,103413.33
2019-02-23T15:33:14.957Z,103412.55
2019-02-23T15:37:57.506Z,103417.66
2019-02-23T15:42:18.916Z,103417.10
2019-02-23T15:46:15.126Z,103413.41
2019-02-23T15:49:40.793Z,103419.25
2019-02-23T15:53:06.689Z,103416.64
2019-02-23T15:56:32.458Z,103423.22
2019-02-23T15:59:58.254Z,103421.70
2019-02-23T16:03:23.855Z,103420.08
2019-02-23T16:06:49.565Z,103415.48
2019-02-23T16:10:17.769Z,103417.08
2019-02-23T16:13:42.906Z,103414.57
2019-02-23T16:17:08.556Z,103421.46
2019-02-23T16:20:34.187Z,103419.63
2019-02-23T16:24:01.822Z,103417.09
2019-02-23T16:27:27.747Z,103418.02
2019-02-23T16:30:53.437Z,103414.90
2019-02-23T16:34:19.058Z,103426.75
2019-02-23T16:37:44.757Z,103424.92
2019-02-23T16:41:10.382Z,103424.14
2019-02-23T16:44:36.038Z,103424.51
2019-02-23T16:48:01.787Z,103429.75
2019-02-23T16:51:27.432Z,103430.36
2019-02-23T16:54:53.010Z,103429.43
2019-02-23T16:58:18.737Z,103433.02
2019-02-23T17:01:44.368Z,103436.34
2019-02-23T17:05:10.412Z,103437.43
2019-02-23T17:08:36.073Z,103436.00
2019-02-23T17:12:02.013Z,103436.33
2019-02-23T17:15:27.650Z,103442.45
2019-02-23T17:18:53.339Z,103435.75
2019-02-23T17:22:19.011Z,103427.86
2019-02-23T17:25:44.627Z,103431.83
2019-02-23T17:29:10.422Z,103430.18
2019-02-23T17:32:36.108Z,103440.14
2019-02-23T17:36:01.729Z,103443.92
2019-02-23T17:39:27.426Z,103448.36
2019-02-23T17:42:53.103Z,103449.05
2019-02-23T17:46:19.110Z,103449.22
2019-02-23T17:49:45.695Z,103445.95
2019-02-23T17:53:11.492Z,103442.09
2019-02-23T17:56:37.110Z,103436.37
2019-02-23T18:00:02.817Z,103437.19
2019-02-23T18:03:28.466Z,103443.14
2019-02-23T18:06:54.055Z,103441.21
2019-02-23T18:10:20.053Z,103444.27
2019-02-23T18:13:45.682Z,103443.63
2019-02-23T18:17:11.753Z,103442.73
2019-02-23T18:20:37.417Z,103452.57
2019-02-23T18:24:03.438Z,103451.31
2019-02-23T18:27:29.115Z,103448.73
2019-02-23T18:30:55.399Z,103449.61
2019-02-23T18:34:21.405Z,103453.26
2019-02-23T18:37:47.303Z,103448.62
2019-02-23T18:41:12.983Z,103454.47
2019-02-23T18:44:38.630Z,103462.70
2019-02-23T18:48:04.238Z,103461.59
2019-02-23T18:51:29.851Z,103465.47
2019-02-23T18:54:55.725Z,103458.41
2019-02-23T18:58:21.408Z,103457.94
2019-02-23T19:01:47.047Z,103457.20
2019-02-23T19:05:13.621Z,103460.17
2019-02-23T19:08:39.261Z,103461.58
2019-02-23T19:12:05.113Z,103468.05
2019-02-23T19:15:30.831Z,103461.58
2019-02-23T19:18:56.472Z,103459.97
2019-02-23T19:22:22.101Z,103458.09
2019-02-23T19:25:47.650Z,103460.83
2019-02-23T19:29:16.420Z,103458.04
2019-02-23T19:32:42.072Z,103466.33
2019-02-23T19:36:07.756Z,103461.35
2019-02-23T19:39:33.423Z,103468.84
2019-02-23T19:42:59.015Z,103460.71
2019-02-23T19:46:25.162Z,103458.91
2019-02-23T19:49:53.814Z,103463.47
2019-02-23T19:53:19.686Z,103462.88
2019-02-23T19:56:47.046Z,103471.44
2019-02-23T20:00:12.923Z,103469.72
2019-02-23T20:03:38.542Z,103471.62
2019-02-23T20:07:04.217Z,103473.57
2019-02-23T20:10:29.837Z,103473.77
2019-02-23T20:13:55.421Z,103470.20
2019-02-23T20:17:21.028Z,103473.25
2019-02-23T20:20:46.683Z,103470.56
2019-02-23T20:24:12.360Z,103468.42
2019-02-23T20:27:38.076Z,103474.81
2019-02-23T20:31:03.678Z,103476.84
2019-02-23T20:34:29.282Z,103478.37
2019-02-23T20:37:55.234Z,103473.53
2019-02-23T20:41:21.529Z,103479.98
2019-02-23T20:44:47.191Z,103473.06
2019-02-23T20:48:12.846Z,103474.58
2019-02-23T20:51:38.563Z,103472.36
2019-02-23T20:55:04.795Z,103469.53
2019-02-23T20:58:30.489Z,103465.95
2019-02-23T21:02:00.090Z,103468.73
2019-02-23T21:05:26.078Z,103459.09
2019-02-23T21:08:51.891Z,103469.12
2019-02-23T21:12:17.692Z,103470.86
2019-02-23T21:15:43.546Z,103463.59
2019-02-23T21:19:09.458Z,103462.80
2019-02-23T21:22:35.375Z,103468.83
2019-02-23T21:26:01.384Z,103459.94
2019-02-23T21:29:27.352Z,103463.08
2019-02-23T21:32:52.974Z,103454.78
2019-02-23T21:36:20.416Z,103455.25
2019-02-23T21:39:46.163Z,103454.30
2019-02-23T21:43:13.519Z,103459.20
2019-02-23T21:46:39.775Z,103451.62
2019-02-23T21:50:05.638Z,103450.55
2019-02-23T21:53:32.193Z,103446.92
2019-02-23T21:56:59.607Z,103451.39
2019-02-23T22:00:25.270Z,103446.50
2019-02-23T22:03:51.231Z,103451.22
2019-02-23T22:07:16.919Z,103454.43
2019-02-23T22:10:45.615Z,103452.73
2019-02-23T22:14:11.832Z,103448.77
2019-02-23T22:17:37.681Z,103454.22
2019-02-23T22:21:03.814Z,103448.00
2019-02-23T22:24:29.935Z,103459.94
2019-02-23T22:27:57.125Z,103448.25
2019-02-23T22:31:22.969Z,103450.55
2019-02-23T22:34:48.679Z,103445.30
2019-02-23T22:38:14.258Z,103447.13
2019-02-23T22:41:39.978Z,103438.36
2019-02-23T22:45:08.145Z,103443.09
2019-02-23T22:48:33.957Z,103436.79
2019-02-23T22:51:59.540Z,103448.77
2019-02-23T22:55:25.352Z,103444.66
2019-02-23T22:58:51.177Z,103459.80
2019-02-23T23:02:17.192Z,103463.89
2019-02-23T23:05:43.125Z,103457.59
2019-02-23T23:09:14.963Z,103452.25
2019-02-23T23:12:42.506Z,103448.77
2019-02-23T23:16:08.398Z,103451.21
2019-02-23T23:19:34.264Z,103443.57
2019-02-23T23:23:00.073Z,103441.37
2019-02-23T23:26:25.725Z,103449.68
2019-02-23T23:29:51.628Z,103447.19
2019-02-23T23:33:18.132Z,103447.13
2019-02-23T23:36:44.096Z,103448.83
2019-02-23T23:40:09.854Z,103452.61
2019-02-23T23:43:35.776Z,103454.15
2019-02-23T23:47:01.485Z,103455.00
2019-02-23T23:50:27.490Z,103449.95
2019-02-23T23:53:53.141Z,103444.39
2019-02-23T23:57:18.754Z,103453.29
